Time;durP1;ratioP1;P1;durP2;ratioP2;P2;SDS_P1;SDS_P2;PMS_P1;PMS_P2;Temp;Humidity;BMP_temperature;BMP_pressure;BME280_temperature;BME280_humidity;BME280_pressure;Samples;Min_cycle;Max_cycle;Signal;HPM_P1;HPM_P2
2024/01/02 00:02:01;;;;;;;4.55;0.90;;;;;;;;;;5010106;28;20524;-57
2024/01/02 00:04:28;;;;;;;2.47;0.80;;;;;;;;;;5012935;28;20502;-57
2024/01/02 00:06:54;;;;;;;4.45;1.98;;;;;;;;;;5008981;28;20035;-57
2024/01/02 00:09:20;;;;;;;1.15;0.73;;;;;;;;;;5003921;28;20038;-56
2024/01/02 00:11:46;;;;;;;1.67;1.23;;;;;;;;;;5023458;28;20513;-57
2024/01/02 00:14:12;;;;;;;5.90;1.40;;;;;;;;;;5010578;28;20057;-56
2024/01/02 00:16:38;;;;;;;2.95;0.93;;;;;;;;;;5001868;28;20046;-57
2024/01/02 00:19:04;;;;;;;1.88;0.93;;;;;;;;;;5013085;28;20045;-56
2024/01/02 00:21:30;;;;;;;2.05;0.90;;;;;;;;;;5007395;28;20050;-57
2024/01/02 00:23:57;;;;;;;2.88;1.15;;;;;;;;;;5011952;28;20060;-57
2024/01/02 00:26:23;;;;;;;1.50;0.80;;;;;;;;;;5011475;28;20489;-59
2024/01/02 00:28:50;;;;;;;4.60;0.90;;;;;;;;;;4988709;28;20061;-54
2024/01/02 00:31:16;;;;;;;2.85;1.27;;;;;;;;;;5008280;28;20046;-54
2024/01/02 00:33:42;;;;;;;2.70;1.00;;;;;;;;;;5006944;28;20065;-57
2024/01/02 00:36:11;;;;;;;1.60;0.98;;;;;;;;;;5010846;28;20068;-56
2024/01/02 00:38:40;;;;;;;4.45;1.35;;;;;;;;;;5004758;28;20038;-58
2024/01/02 00:41:07;;;;;;;2.15;0.80;;;;;;;;;;5005725;28;20056;-56
2024/01/02 00:43:33;;;;;;;3.10;0.93;;;;;;;;;;5009854;28;20034;-57
2024/01/02 00:46:00;;;;;;;3.08;0.80;;;;;;;;;;5006560;28;20041;-58
2024/01/02 00:48:26;;;;;;;2.40;0.85;;;;;;;;;;5012082;28;20045;-56
2024/01/02 00:50:52;;;;;;;3.40;0.98;;;;;;;;;;5000310;28;20058;-57
2024/01/02 00:53:19;;;;;;;1.80;0.90;;;;;;;;;;5005371;28;20038;-57
2024/01/02 00:55:46;;;;;;;2.83;1.00;;;;;;;;;;5003182;28;20046;-56
2024/01/02 00:58:12;;;;;;;1.88;1.00;;;;;;;;;;5008452;28;20042;-57
2024/01/02 01:00:38;;;;;;;3.13;0.90;;;;;;;;;;5000953;28;20057;-57
2024/01/02 01:03:04;;;;;;;1.58;0.73;;;;;;;;;;4996520;28;20040;-57
2024/01/02 01:05:31;;;;;;;1.20;0.70;;;;;;;;;;5001839;28;20038;-56
2024/01/02 01:07:57;;;;;;;1.42;0.95;;;;;;;;;;4999047;28;20034;-56
2024/01/02 01:10:23;;;;;;;1.75;1.00;;;;;;;;;;4999324;28;20050;-56
2024/01/02 01:12:49;;;;;;;1.58;0.90;;;;;;;;;;5006156;28;20038;-57
2024/01/02 01:15:15;;;;;;;2.92;0.77;;;;;;;;;;5010105;28;20040;-56
2024/01/02 01:17:41;;;;;;;1.25;1.10;;;;;;;;;;4980266;28;20127;-57
2024/01/02 01:20:08;;;;;;;2.05;1.00;;;;;;;;;;5003884;28;20053;-57
2024/01/02 01:22:36;;;;;;;2.00;0.73;;;;;;;;;;4995019;28;20041;-57
2024/01/02 01:25:02;;;;;;;2.60;0.65;;;;;;;;;;5003798;28;20034;-56
2024/01/02 01:27:28;;;;;;;1.50;0.95;;;;;;;;;;4995376;28;20406;-56
2024/01/02 01:29:54;;;;;;;2.15;1.27;;;;;;;;;;5002068;28;20037;-57
2024/01/02 01:32:21;;;;;;;1.05;0.55;;;;;;;;;;5001254;28;20065;-57
2024/01/02 01:34:47;;;;;;;1.35;0.70;;;;;;;;;;4996260;28;20413;-57
2024/01/02 01:37:13;;;;;;;1.40;0.73;;;;;;;;;;5004053;28;20038;-57
2024/01/02 01:39:39;;;;;;;2.30;0.73;;;;;;;;;;5005067;28;20050;-57
2024/01/02 01:42:05;;;;;;;1.65;0.70;;;;;;;;;;4999039;28;20061;-56
2024/01/02 01:44:31;;;;;;;1.45;0.80;;;;;;;;;;5001794;28;20041;-56
2024/01/02 01:46:58;;;;;;;1.42;0.70;;;;;;;;;;5007144;28;20030;-57
2024/01/02 01:49:24;;;;;;;1.20;0.60;;;;;;;;;;5002100;28;20038;-57
2024/01/02 01:51:51;;;;;;;0.80;0.50;;;;;;;;;;5000081;28;20049;-56
2024/01/02 01:54:18;;;;;;;4.47;0.85;;;;;;;;;;5003650;28;20038;-57
2024/01/02 01:56:45;;;;;;;2.25;1.05;;;;;;;;;;4998165;28;20038;-57
2024/01/02 01:59:15;;;;;;;1.42;0.70;;;;;;;;;;5006197;28;20038;-57
2024/01/02 02:01:45;;;;;;;0.93;0.60;;;;;;;;;;5008370;28;20045;-57
2024/01/02 02:04:11;;;;;;;1.30;0.60;;;;;;;;;;4994464;28;20050;-58
2024/01/02 02:06:37;;;;;;;2.13;0.70;;;;;;;;;;5005349;28;20030;-56
2024/01/02 02:09:04;;;;;;;1.63;0.68;;;;;;;;;;5003634;28;20033;-56
2024/01/02 02:11:31;;;;;;;1.67;0.90;;;;;;;;;;5002048;28;20406;-57
2024/01/02 02:13:57;;;;;;;1.67;0.70;;;;;;;;;;5010088;28;20050;-58
2024/01/02 02:16:23;;;;;;;1.20;0.82;;;;;;;;;;4996822;28;20067;-56
2024/01/02 02:18:49;;;;;;;1.52;0.90;;;;;;;;;;5004998;28;20429;-56
2024/01/02 02:21:15;;;;;;;1.48;1.00;;;;;;;;;;5005659;28;20042;-56
2024/01/02 02:23:42;;;;;;;1.17;0.80;;;;;;;;;;5007177;28;20034;-57
2024/01/02 02:26:08;;;;;;;2.13;0.85;;;;;;;;;;5001103;28;20045;-56
2024/01/02 02:28:34;;;;;;;2.00;0.70;;;;;;;;;;4994840;28;20153;-57
2024/01/02 02:31:00;;;;;;;2.97;0.63;;;;;;;;;;5002680;28;20042;-56
2024/01/02 02:33:26;;;;;;;3.03;0.70;;;;;;;;;;5005451;28;20053;-58
2024/01/02 02:35:52;;;;;;;1.15;0.90;;;;;;;;;;4999972;28;20651;-57
2024/01/02 02:38:18;;;;;;;2.60;0.80;;;;;;;;;;4991434;28;20039;-57
2024/01/02 02:40:44;;;;;;;1.33;0.77;;;;;;;;;;4994364;28;20053;-57
2024/01/02 02:43:10;;;;;;;2.67;0.88;;;;;;;;;;5002196;28;20048;-57
2024/01/02 02:45:36;;;;;;;4.22;1.00;;;;;;;;;;5000829;28;20042;-56
2024/01/02 02:48:03;;;;;;;1.92;1.00;;;;;;;;;;5000915;28;20042;-57
2024/01/02 02:50:29;;;;;;;2.13;0.70;;;;;;;;;;4999588;28;20042;-57
2024/01/02 02:52:55;;;;;;;1.50;0.85;;;;;;;;;;5000010;28;20046;-58
2024/01/02 02:55:21;;;;;;;0.98;0.80;;;;;;;;;;4997953;28;20049;-57
2024/01/02 02:57:47;;;;;;;1.85;1.25;;;;;;;;;;5000984;28;20042;-57
2024/01/02 03:00:14;;;;;;;2.58;0.93;;;;;;;;;;5001123;28;20663;-56
2024/01/02 03:02:41;;;;;;;3.40;0.80;;;;;;;;;;4998782;28;20046;-56
2024/01/02 03:05:08;;;;;;;2.33;0.70;;;;;;;;;;4995907;28;20387;-57
2024/01/02 03:07:34;;;;;;;1.75;0.98;;;;;;;;;;4997713;28;20395;-57
2024/01/02 03:10:00;;;;;;;1.85;0.68;;;;;;;;;;5006398;28;20037;-56
2024/01/02 03:12:26;;;;;;;2.67;0.52;;;;;;;;;;5001335;28;20034;-56
2024/01/02 03:14:52;;;;;;;0.70;0.60;;;;;;;;;;5004867;28;20452;-57
2024/01/02 03:17:18;;;;;;;2.85;1.30;;;;;;;;;;5006696;28;20041;-56
2024/01/02 03:19:44;;;;;;;0.70;0.50;;;;;;;;;;4997081;28;20506;-58
2024/01/02 03:22:10;;;;;;;2.35;0.60;;;;;;;;;;4999954;28;20070;-56
2024/01/02 03:24:37;;;;;;;0.75;0.73;;;;;;;;;;5000489;28;20049;-59
2024/01/02 03:27:03;;;;;;;1.02;0.77;;;;;;;;;;5002327;28;20038;-57
2024/01/02 03:29:29;;;;;;;1.95;0.70;;;;;;;;;;4998042;28;20048;-57
2024/01/02 03:31:55;;;;;;;1.30;0.80;;;;;;;;;;5004167;28;20061;-57
2024/01/02 03:34:21;;;;;;;2.10;0.80;;;;;;;;;;5001981;28;20050;-57
2024/01/02 03:36:47;;;;;;;2.50;0.80;;;;;;;;;;5002503;28;20046;-56
2024/01/02 03:39:13;;;;;;;1.42;0.70;;;;;;;;;;5000129;28;20050;-56
2024/01/02 03:41:39;;;;;;;1.13;0.88;;;;;;;;;;5001038;28;20056;-56
2024/01/02 03:44:05;;;;;;;2.30;0.80;;;;;;;;;;5001336;28;20041;-56
2024/01/02 03:46:31;;;;;;;0.63;0.52;;;;;;;;;;4993518;28;20027;-57
2024/01/02 03:48:58;;;;;;;4.10;1.00;;;;;;;;;;4998758;28;20050;-57
2024/01/02 03:51:24;;;;;;;1.95;0.90;;;;;;;;;;4997221;28;20497;-57
2024/01/02 03:53:50;;;;;;;1.38;0.77;;;;;;;;;;4995530;28;20421;-58
2024/01/02 03:56:16;;;;;;;1.77;0.80;;;;;;;;;;4991957;28;20038;-57
2024/01/02 03:58:43;;;;;;;1.92;0.93;;;;;;;;;;5002882;28;20069;-55
2024/01/02 04:01:09;;;;;;;1.15;0.90;;;;;;;;;;5005992;28;20034;-58
2024/01/02 04:03:35;;;;;;;3.10;1.10;;;;;;;;;;4995523;28;20046;-57
2024/01/02 04:06:01;;;;;;;4.80;1.20;;;;;;;;;;4999257;28;20101;-59
2024/01/02 04:08:27;;;;;;;3.25;1.10;;;;;;;;;;5003970;28;20046;-58
2024/01/02 04:10:53;;;;;;;1.10;0.70;;;;;;;;;;5004151;28;20405;-57
2024/01/02 04:13:19;;;;;;;3.28;1.17;;;;;;;;;;5002283;28;20386;-56
2024/01/02 04:15:45;;;;;;;1.23;0.90;;;;;;;;;;4999859;28;20427;-58
2024/01/02 04:18:11;;;;;;;5.18;1.00;;;;;;;;;;5005470;28;20029;-57
2024/01/02 04:20:37;;;;;;;2.30;0.80;;;;;;;;;;5018828;28;20045;-58
2024/01/02 04:23:03;;;;;;;2.33;0.93;;;;;;;;;;5000436;28;20061;-58
2024/01/02 04:25:30;;;;;;;0.88;0.80;;;;;;;;;;4991493;28;20038;-57
2024/01/02 04:27:56;;;;;;;1.75;0.85;;;;;;;;;;4993327;28;20405;-57
2024/01/02 04:30:23;;;;;;;1.75;0.88;;;;;;;;;;5000427;28;20053;-57
2024/01/02 04:32:49;;;;;;;4.20;1.35;;;;;;;;;;4998137;28;20061;-56
2024/01/02 04:35:15;;;;;;;2.08;1.02;;;;;;;;;;5005657;28;20049;-56
2024/01/02 04:37:43;;;;;;;1.52;0.90;;;;;;;;;;4997113;28;20049;-56
2024/01/02 04:40:10;;;;;;;1.00;0.80;;;;;;;;;;5003977;28;20049;-57
2024/01/02 04:42:37;;;;;;;3.05;1.25;;;;;;;;;;4997427;28;20030;-57
2024/01/02 04:45:04;;;;;;;3.60;1.70;;;;;;;;;;5001289;28;20045;-57
2024/01/02 04:47:31;;;;;;;2.78;1.55;;;;;;;;;;5002202;28;20033;-57
2024/01/02 04:49:57;;;;;;;3.47;1.27;;;;;;;;;;4998626;28;20051;-57
2024/01/02 04:52:23;;;;;;;2.25;1.25;;;;;;;;;;5003603;28;20056;-58
2024/01/02 04:54:49;;;;;;;3.90;1.15;;;;;;;;;;5001773;28;20053;-57
2024/01/02 04:57:16;;;;;;;2.25;1.33;;;;;;;;;;5005057;28;20522;-57
2024/01/02 04:59:42;;;;;;;2.30;1.10;;;;;;;;;;4997347;28;20041;-57
2024/01/02 05:02:08;;;;;;;3.22;1.35;;;;;;;;;;5000271;28;20559;-57
2024/01/02 05:04:34;;;;;;;2.42;1.20;;;;;;;;;;5008850;28;20046;-57
2024/01/02 05:07:00;;;;;;;1.90;1.27;;;;;;;;;;5003859;28;20046;-58
2024/01/02 05:09:27;;;;;;;2.47;1.40;;;;;;;;;;5007728;28;20034;-57
2024/01/02 05:11:54;;;;;;;2.25;1.40;;;;;;;;;;4998746;28;20424;-57
2024/01/02 05:14:20;;;;;;;3.75;1.50;;;;;;;;;;5006954;28;20045;-57
2024/01/02 05:16:46;;;;;;;2.97;1.55;;;;;;;;;;5006358;28;20121;-58
2024/01/02 05:19:12;;;;;;;2.33;1.17;;;;;;;;;;5008480;28;20034;-57
2024/01/02 05:21:38;;;;;;;1.80;1.25;;;;;;;;;;5005805;28;20046;-58
2024/01/02 05:24:04;;;;;;;3.05;1.02;;;;;;;;;;5005305;28;20418;-56
2024/01/02 05:26:30;;;;;;;2.22;1.02;;;;;;;;;;5006851;28;20049;-57
2024/01/02 05:28:56;;;;;;;1.02;0.93;;;;;;;;;;5001131;28;20041;-57
2024/01/02 05:31:22;;;;;;;2.42;1.08;;;;;;;;;;5001512;28;20741;-57
2024/01/02 05:33:49;;;;;;;1.95;1.17;;;;;;;;;;5005271;28;20045;-57
2024/01/02 05:36:15;;;;;;;2.63;1.38;;;;;;;;;;5004374;28;20052;-57
2024/01/02 05:38:41;;;;;;;1.38;1.27;;;;;;;;;;4999269;28;20050;-57
2024/01/02 05:41:07;;;;;;;2.65;1.48;;;;;;;;;;4997799;28;20033;-56
2024/01/02 05:43:34;;;;;;;2.40;1.30;;;;;;;;;;5001807;28;20049;-58
2024/01/02 05:46:00;;;;;;;1.58;1.20;;;;;;;;;;5004225;28;20038;-57
2024/01/02 05:48:26;;;;;;;2.28;1.20;;;;;;;;;;5002291;28;20046;-57
2024/01/02 05:50:52;;;;;;;1.38;1.00;;;;;;;;;;4998256;28;20034;-57
2024/01/02 05:53:19;;;;;;;2.72;1.65;;;;;;;;;;4999770;28;20046;-56
2024/01/02 05:55:45;;;;;;;2.42;1.20;;;;;;;;;;4996801;28;20042;-57
2024/01/02 05:58:11;;;;;;;2.58;1.20;;;;;;;;;;5003823;28;20414;-58
2024/01/02 06:00:37;;;;;;;2.20;1.38;;;;;;;;;;5002857;28;20029;-56
2024/01/02 06:03:03;;;;;;;1.20;1.10;;;;;;;;;;5007990;28;20034;-57
2024/01/02 06:05:29;;;;;;;1.67;1.13;;;;;;;;;;4992085;28;20042;-58
2024/01/02 06:07:55;;;;;;;2.03;1.55;;;;;;;;;;5002297;28;20027;-58
2024/01/02 06:10:22;;;;;;;1.38;1.08;;;;;;;;;;5004777;28;20041;-57
2024/01/02 06:12:48;;;;;;;1.48;1.10;;;;;;;;;;5003544;28;20437;-60
2024/01/02 06:15:14;;;;;;;0.93;0.80;;;;;;;;;;5002041;28;20715;-58
2024/01/02 06:17:40;;;;;;;1.63;1.05;;;;;;;;;;5006082;28;20049;-57
2024/01/02 06:20:08;;;;;;;1.10;1.00;;;;;;;;;;5005264;28;20045;-57
2024/01/02 06:22:37;;;;;;;2.40;1.50;;;;;;;;;;5002107;28;20049;-58
2024/01/02 06:25:10;;;;;;;1.38;1.25;;;;;;;;;;5004785;28;20057;-57
2024/01/02 06:27:36;;;;;;;2.05;1.08;;;;;;;;;;5005195;28;20432;-57
2024/01/02 06:30:04;;;;;;;2.35;1.05;;;;;;;;;;5003218;28;20050;-57
2024/01/02 06:32:31;;;;;;;1.48;0.90;;;;;;;;;;5000779;28;20074;-58
2024/01/02 06:34:57;;;;;;;0.88;0.80;;;;;;;;;;5000157;28;20043;-58
2024/01/02 06:37:24;;;;;;;1.00;0.80;;;;;;;;;;5004016;28;20057;-57
2024/01/02 06:39:50;;;;;;;1.25;0.77;;;;;;;;;;4996306;28;20045;-57
2024/01/02 06:42:16;;;;;;;1.27;0.82;;;;;;;;;;5000352;28;20061;-57
2024/01/02 06:44:43;;;;;;;1.33;1.15;;;;;;;;;;4997450;28;20046;-58
2024/01/02 06:47:09;;;;;;;0.82;0.80;;;;;;;;;;5005198;28;20041;-58
2024/01/02 06:49:35;;;;;;;0.80;0.80;;;;;;;;;;4999061;28;20042;-59
2024/01/02 06:52:01;;;;;;;0.60;0.60;;;;;;;;;;5002357;28;20057;-58
2024/01/02 06:54:27;;;;;;;0.88;0.73;;;;;;;;;;5003320;28;20060;-58
2024/01/02 06:56:53;;;;;;;2.58;0.90;;;;;;;;;;4997840;28;20050;-58
2024/01/02 06:59:19;;;;;;;1.55;0.85;;;;;;;;;;4998856;28;20047;-58
2024/01/02 07:01:46;;;;;;;0.82;0.68;;;;;;;;;;5004432;28;20437;-57
2024/01/02 07:04:12;;;;;;;1.35;0.75;;;;;;;;;;5002498;28;20367;-58
2024/01/02 07:06:38;;;;;;;2.35;0.95;;;;;;;;;;4997076;28;20437;-58
2024/01/02 07:09:04;;;;;;;1.10;0.70;;;;;;;;;;5002657;28;20418;-57
2024/01/02 07:11:31;;;;;;;1.27;0.70;;;;;;;;;;5000418;28;20034;-58
2024/01/02 07:13:57;;;;;;;1.65;0.52;;;;;;;;;;5005076;28;20038;-58
2024/01/02 07:16:23;;;;;;;0.60;0.60;;;;;;;;;;5003026;28;20038;-58
2024/01/02 07:18:50;;;;;;;1.00;0.40;;;;;;;;;;4991797;28;20414;-57
2024/01/02 07:21:16;;;;;;;1.52;0.80;;;;;;;;;;5002765;28;20038;-58
2024/01/02 07:23:42;;;;;;;1.45;0.63;;;;;;;;;;4996561;28;20038;-58
2024/01/02 07:26:08;;;;;;;2.60;1.27;;;;;;;;;;5004109;28;20516;-57
2024/01/02 07:28:37;;;;;;;1.27;0.50;;;;;;;;;;5004760;28;20501;-58
2024/01/02 07:31:03;;;;;;;1.03;0.50;;;;;;;;;;4995419;28;20501;-58
2024/01/02 07:33:29;;;;;;;0.80;0.80;;;;;;;;;;5001451;28;20304;-58
2024/01/02 07:35:55;;;;;;;1.00;0.70;;;;;;;;;;5002845;28;20050;-58
2024/01/02 07:38:25;;;;;;;1.00;0.70;;;;;;;;;;4998134;28;20061;-58
2024/01/02 07:40:54;;;;;;;0.50;0.50;;;;;;;;;;4998675;28;20677;-58
2024/01/02 07:43:22;;;;;;;0.40;0.40;;;;;;;;;;5007173;28;20493;-58
2024/01/02 07:45:48;;;;;;;0.70;0.43;;;;;;;;;;5001959;28;20049;-58
2024/01/02 07:48:14;;;;;;;2.00;0.80;;;;;;;;;;5000961;28;20038;-56
2024/01/02 07:50:40;;;;;;;1.17;0.70;;;;;;;;;;4997243;28;20041;-58
2024/01/02 07:53:06;;;;;;;1.17;0.60;;;;;;;;;;4999268;28;20049;-58
2024/01/02 07:55:32;;;;;;;0.88;0.55;;;;;;;;;;5002151;28;20053;-60
2024/01/02 07:57:58;;;;;;;0.52;0.40;;;;;;;;;;5005100;28;20047;-58
2024/01/02 08:00:25;;;;;;;2.92;0.40;;;;;;;;;;5001859;28;20402;-58
2024/01/02 08:02:51;;;;;;;0.63;0.50;;;;;;;;;;4996241;28;20425;-59
2024/01/02 08:05:18;;;;;;;0.82;0.40;;;;;;;;;;5005493;28;20498;-59
2024/01/02 08:07:44;;;;;;;1.42;0.70;;;;;;;;;;5005340;28;20057;-58
2024/01/02 08:10:10;;;;;;;1.08;0.80;;;;;;;;;;5009228;28;20034;-60
2024/01/02 08:12:36;;;;;;;1.08;0.68;;;;;;;;;;5004256;28;20060;-59
2024/01/02 08:15:02;;;;;;;7.47;3.85;;;;;;;;;;5004075;28;20057;-58
2024/01/02 08:17:30;;;;;;;1.55;1.13;;;;;;;;;;5005797;28;20026;-59
2024/01/02 08:19:56;;;;;;;4.70;1.92;;;;;;;;;;5010158;28;20060;-59
2024/01/02 08:22:22;;;;;;;3.65;1.73;;;;;;;;;;5003694;28;20053;-59
2024/01/02 08:24:49;;;;;;;2.25;0.60;;;;;;;;;;5005080;28;21526;-58
2024/01/02 08:27:15;;;;;;;1.65;1.20;;;;;;;;;;5003130;28;20494;-58
2024/01/02 08:29:41;;;;;;;1.25;0.93;;;;;;;;;;5001987;28;20046;-60
2024/01/02 08:32:07;;;;;;;1.42;1.00;;;;;;;;;;5006083;28;20413;-59
2024/01/02 08:34:33;;;;;;;0.50;0.50;;;;;;;;;;5003442;28;20033;-58
2024/01/02 08:36:59;;;;;;;0.90;0.65;;;;;;;;;;5004702;28;20054;-58
2024/01/02 08:39:25;;;;;;;0.68;0.65;;;;;;;;;;5009379;28;20034;-59
2024/01/02 08:41:51;;;;;;;2.22;1.40;;;;;;;;;;5005369;28;20501;-59
2024/01/02 08:44:17;;;;;;;0.63;0.63;;;;;;;;;;5007229;28;20042;-59
2024/01/02 08:46:43;;;;;;;1.60;0.60;;;;;;;;;;5002983;28;20054;-58
2024/01/02 08:49:11;;;;;;;3.03;1.13;;;;;;;;;;5003306;28;20053;-58
2024/01/02 08:51:37;;;;;;;9.73;3.80;;;;;;;;;;5002226;28;20489;-59
2024/01/02 08:54:04;;;;;;;1.40;0.40;;;;;;;;;;5008425;28;20049;-59
2024/01/02 08:56:30;;;;;;;0.45;0.30;;;;;;;;;;5008473;28;20037;-59
2024/01/02 08:58:56;;;;;;;0.70;0.70;;;;;;;;;;5002604;28;20058;-58
2024/01/02 09:01:22;;;;;;;0.43;0.43;;;;;;;;;;4999454;28;20046;-59
2024/01/02 09:03:48;;;;;;;0.57;0.40;;;;;;;;;;5001666;28;20061;-58
2024/01/02 09:06:18;;;;;;;1.80;0.63;;;;;;;;;;5000235;28;20061;-58
2024/01/02 09:08:45;;;;;;;1.55;0.68;;;;;;;;;;5005207;28;20349;-58
2024/01/02 09:11:12;;;;;;;0.40;0.30;;;;;;;;;;5006191;28;20042;-58
2024/01/02 09:13:38;;;;;;;0.40;0.30;;;;;;;;;;5002162;28;20520;-58
2024/01/02 09:16:07;;;;;;;1.20;0.70;;;;;;;;;;5005281;28;20041;-58
2024/01/02 09:18:34;;;;;;;0.35;0.30;;;;;;;;;;4998342;28;20035;-59
2024/01/02 09:21:00;;;;;;;0.70;0.50;;;;;;;;;;5007849;28;20072;-59
2024/01/02 09:23:26;;;;;;;0.85;0.60;;;;;;;;;;4999594;28;20040;-59
2024/01/02 09:25:57;;;;;;;1.73;1.02;;;;;;;;;;5007363;28;20038;-58
2024/01/02 09:28:23;;;;;;;0.82;0.68;;;;;;;;;;5001836;28;20036;-58
2024/01/02 09:30:49;;;;;;;0.50;0.50;;;;;;;;;;5006411;28;20046;-58
2024/01/02 09:33:17;;;;;;;0.40;0.40;;;;;;;;;;5000933;28;20049;-59
2024/01/02 09:35:43;;;;;;;0.30;0.30;;;;;;;;;;5007220;28;20057;-56
2024/01/02 09:38:11;;;;;;;0.77;0.52;;;;;;;;;;5001756;28;20053;-59
2024/01/02 09:40:52;;;;;;;0.40;0.40;;;;;;;;;;5007699;28;20042;-59
2024/01/02 09:43:26;;;;;;;0.50;0.50;;;;;;;;;;5002441;28;20041;-58
2024/01/02 09:46:01;;;;;;;0.30;0.30;;;;;;;;;;5001869;28;20502;-58
2024/01/02 09:48:52;;;;;;;0.20;0.20;;;;;;;;;;5007199;28;20045;-58
2024/01/02 09:51:47;;;;;;;0.40;0.30;;;;;;;;;;5002675;28;20038;-58
2024/01/02 09:54:15;;;;;;;0.95;0.40;;;;;;;;;;4998067;28;20402;-58
2024/01/02 09:56:59;;;;;;;0.22;0.22;;;;;;;;;;4999839;28;20417;-58
2024/01/02 09:59:31;;;;;;;0.30;0.30;;;;;;;;;;4995542;28;20441;-58
2024/01/02 10:02:02;;;;;;;1.55;0.40;;;;;;;;;;5001500;28;20057;-58
2024/01/02 10:04:40;;;;;;;0.82;0.30;;;;;;;;;;5007936;28;20046;-58
2024/01/02 10:07:13;;;;;;;0.77;0.60;;;;;;;;;;5001062;28;20034;-58
2024/01/02 10:10:08;;;;;;;0.95;0.40;;;;;;;;;;5002629;28;20382;-59
2024/01/02 10:12:47;;;;;;;0.20;0.20;;;;;;;;;;4991701;28;20049;-59
2024/01/02 10:15:51;;;;;;;0.63;0.40;;;;;;;;;;5002102;28;20045;-61
2024/01/02 10:18:30;;;;;;;0.40;0.40;;;;;;;;;;5003291;28;20572;-59
2024/01/02 10:21:03;;;;;;;0.43;0.32;;;;;;;;;;5008990;28;20801;-58
2024/01/02 10:23:30;;;;;;;1.58;0.50;;;;;;;;;;5002627;28;20046;-59
2024/01/02 10:26:00;;;;;;;1.05;0.32;;;;;;;;;;5002208;28;20038;-60
2024/01/02 10:28:29;;;;;;;0.30;0.30;;;;;;;;;;5004359;28;20041;-61
2024/01/02 10:31:05;;;;;;;0.60;0.60;;;;;;;;;;5000453;28;20057;-58
2024/01/02 10:33:37;;;;;;;0.30;0.30;;;;;;;;;;4994401;28;20482;-59
2024/01/02 10:36:08;;;;;;;0.45;0.35;;;;;;;;;;5002619;28;20498;-58
2024/01/02 10:38:49;;;;;;;1.25;0.90;;;;;;;;;;4998987;28;20058;-58
2024/01/02 10:41:25;;;;;;;1.17;0.75;;;;;;;;;;5001409;28;20501;-58
2024/01/02 10:43:54;;;;;;;0.82;0.50;;;;;;;;;;4996421;28;20042;-58
2024/01/02 10:46:46;;;;;;;0.40;0.40;;;;;;;;;;5004239;28;20045;-58
2024/01/02 10:49:40;;;;;;;0.55;0.40;;;;;;;;;;5003457;28;20030;-60
2024/01/02 10:52:25;;;;;;;0.38;0.30;;;;;;;;;;4997086;28;20401;-59
2024/01/02 10:55:01;;;;;;;0.50;0.47;;;;;;;;;;5006864;28;20529;-59
2024/01/02 10:57:59;;;;;;;0.60;0.60;;;;;;;;;;5005998;28;20505;-58
2024/01/02 11:00:29;;;;;;;0.30;0.30;;;;;;;;;;5004081;28;20053;-58
2024/01/02 11:03:10;;;;;;;0.63;0.40;;;;;;;;;;5005359;28;20042;-59
2024/01/02 11:05:44;;;;;;;0.77;0.55;;;;;;;;;;5005046;28;20049;-59
2024/01/02 11:08:20;;;;;;;0.40;0.40;;;;;;;;;;4999048;28;20406;-59
2024/01/02 11:10:55;;;;;;;0.70;0.60;;;;;;;;;;5001824;28;20042;-58
2024/01/02 11:13:24;;;;;;;0.20;0.20;;;;;;;;;;5004049;28;20069;-58
2024/01/02 11:16:00;;;;;;;0.30;0.30;;;;;;;;;;5003438;28;20413;-59
2024/01/02 11:18:32;;;;;;;0.50;0.50;;;;;;;;;;4996008;28;20050;-59
2024/01/02 11:21:02;;;;;;;0.52;0.52;;;;;;;;;;5000324;28;20568;-59
2024/01/02 11:23:37;;;;;;;0.70;0.40;;;;;;;;;;4993651;28;20038;-59
2024/01/02 11:26:06;;;;;;;0.40;0.40;;;;;;;;;;5005022;28;20053;-58
2024/01/02 11:28:36;;;;;;;1.40;0.60;;;;;;;;;;5001330;28;20536;-59
2024/01/02 11:31:04;;;;;;;1.77;0.73;;;;;;;;;;4999052;28;20050;-59
2024/01/02 11:33:30;;;;;;;0.43;0.40;;;;;;;;;;5000830;28;20033;-60
2024/01/02 11:36:08;;;;;;;0.47;0.47;;;;;;;;;;5000092;28;20061;-59
2024/01/02 11:38:51;;;;;;;1.15;1.05;;;;;;;;;;5002024;28;20042;-59
2024/01/02 11:41:20;;;;;;;0.60;0.60;;;;;;;;;;4998557;28;20513;-58
2024/01/02 11:44:05;;;;;;;0.50;0.40;;;;;;;;;;4999251;28;20041;-58
2024/01/02 11:46:35;;;;;;;0.63;0.47;;;;;;;;;;5002019;28;20056;-59
2024/01/02 11:49:16;;;;;;;0.90;0.70;;;;;;;;;;5001583;28;20055;-59
2024/01/02 11:51:57;;;;;;;1.00;0.80;;;;;;;;;;4998145;28;20052;-58
2024/01/02 11:54:40;;;;;;;0.50;0.40;;;;;;;;;;4997238;28;20417;-58
2024/01/02 11:57:15;;;;;;;0.70;0.40;;;;;;;;;;4998820;28;20038;-59
2024/01/02 12:00:00;;;;;;;0.20;0.20;;;;;;;;;;4994093;28;20410;-58
2024/01/02 12:02:47;;;;;;;0.52;0.40;;;;;;;;;;4997094;28;20046;-59
2024/01/02 12:05:30;;;;;;;0.80;0.70;;;;;;;;;;5000690;28;20046;-59
2024/01/02 12:07:56;;;;;;;0.40;0.40;;;;;;;;;;5003842;28;20413;-58
2024/01/02 12:10:32;;;;;;;0.38;0.30;;;;;;;;;;4999991;28;20050;-58
2024/01/02 12:13:11;;;;;;;0.52;0.40;;;;;;;;;;5000814;28;20046;-59
2024/01/02 12:15:54;;;;;;;1.13;0.55;;;;;;;;;;5003064;28;20034;-59
2024/01/02 12:18:22;;;;;;;0.30;0.30;;;;;;;;;;5003907;28;20042;-59
2024/01/02 12:20:56;;;;;;;0.30;0.30;;;;;;;;;;4998360;28;20053;-59
2024/01/02 12:23:23;;;;;;;1.92;0.60;;;;;;;;;;5004468;28;20038;-59
2024/01/02 12:25:54;;;;;;;0.40;0.40;;;;;;;;;;5003012;28;20041;-59
2024/01/02 12:28:24;;;;;;;0.40;0.40;;;;;;;;;;5002291;28;20038;-60
2024/01/02 12:30:56;;;;;;;1.35;0.57;;;;;;;;;;5003961;28;20039;-60
2024/01/02 12:33:31;;;;;;;0.40;0.40;;;;;;;;;;5020142;28;20034;-58
2024/01/02 12:36:22;;;;;;;2.58;0.50;;;;;;;;;;5000289;28;20049;-58
2024/01/02 12:38:51;;;;;;;3.67;1.55;;;;;;;;;;4997930;28;20387;-59
2024/01/02 12:41:33;;;;;;;5.25;1.98;;;;;;;;;;4997623;28;20034;-59
2024/01/02 12:44:03;;;;;;;1.42;0.80;;;;;;;;;;5002520;28;20046;-58
2024/01/02 12:46:36;;;;;;;0.73;0.50;;;;;;;;;;4999737;28;20050;-59
2024/01/02 12:49:10;;;;;;;1.48;0.52;;;;;;;;;;4999246;28;20033;-58
2024/01/02 12:51:38;;;;;;;1.15;0.55;;;;;;;;;;4999811;28;20041;-59
2024/01/02 12:54:08;;;;;;;0.73;0.57;;;;;;;;;;5006080;28;20521;-59
2024/01/02 12:56:40;;;;;;;0.40;0.30;;;;;;;;;;5005123;28;20038;-57
2024/01/02 12:59:07;;;;;;;0.57;0.47;;;;;;;;;;5008980;28;20026;-58
2024/01/02 13:01:35;;;;;;;0.38;0.30;;;;;;;;;;5001364;28;20513;-59
2024/01/02 13:04:02;;;;;;;1.05;0.55;;;;;;;;;;5007186;28;20044;-59
2024/01/02 13:06:31;;;;;;;1.50;0.70;;;;;;;;;;4999758;28;20034;-59
2024/01/02 13:08:57;;;;;;;1.17;0.82;;;;;;;;;;5003992;28;20044;-59
2024/01/02 13:11:24;;;;;;;0.40;0.20;;;;;;;;;;5001619;28;20069;-59
2024/01/02 13:13:52;;;;;;;2.75;0.38;;;;;;;;;;5001128;28;20068;-59
2024/01/02 13:16:19;;;;;;;0.20;0.20;;;;;;;;;;5004373;28;20080;-59
2024/01/02 13:18:50;;;;;;;0.60;0.50;;;;;;;;;;5005568;28;20050;-59
2024/01/02 13:21:18;;;;;;;1.08;0.60;;;;;;;;;;5002829;28;20026;-59
2024/01/02 13:23:55;;;;;;;1.25;0.60;;;;;;;;;;5001647;28;20050;-59
2024/01/02 13:26:22;;;;;;;0.43;0.40;;;;;;;;;;5002912;28;20429;-58
2024/01/02 13:28:50;;;;;;;0.40;0.40;;;;;;;;;;4997912;28;20041;-59
2024/01/02 13:31:28;;;;;;;0.90;0.45;;;;;;;;;;4998772;28;20049;-59
2024/01/02 13:33:54;;;;;;;0.40;0.40;;;;;;;;;;4998499;28;20034;-58
2024/01/02 13:36:24;;;;;;;0.47;0.30;;;;;;;;;;5003277;28;20500;-59
2024/01/02 13:38:50;;;;;;;1.02;0.73;;;;;;;;;;5002577;28;20042;-59
2024/01/02 13:41:18;;;;;;;1.40;0.50;;;;;;;;;;4995462;28;20038;-59
2024/01/02 13:43:45;;;;;;;0.60;0.40;;;;;;;;;;5002087;28;20058;-59
2024/01/02 13:46:13;;;;;;;0.20;0.20;;;;;;;;;;5005183;28;20067;-59
2024/01/02 13:48:39;;;;;;;0.30;0.28;;;;;;;;;;4998237;28;20038;-59
2024/01/02 13:51:08;;;;;;;0.57;0.30;;;;;;;;;;5002199;28;20413;-58
2024/01/02 13:53:55;;;;;;;0.50;0.50;;;;;;;;;;4999183;28;20037;-58
2024/01/02 13:56:21;;;;;;;0.70;0.65;;;;;;;;;;4997733;28;20042;-59
2024/01/02 13:58:56;;;;;;;1.48;0.40;;;;;;;;;;5001060;28;20046;-59
2024/01/02 14:01:32;;;;;;;0.50;0.25;;;;;;;;;;5006932;28;20042;-59
2024/01/02 14:03:59;;;;;;;2.83;1.67;;;;;;;;;;5003715;28;20054;-59
2024/01/02 14:06:26;;;;;;;2.15;1.50;;;;;;;;;;5022225;28;20409;-59
2024/01/02 14:09:15;;;;;;;0.57;0.57;;;;;;;;;;5005349;28;20394;-59
2024/01/02 14:11:58;;;;;;;0.43;0.40;;;;;;;;;;5006574;28;20046;-58
2024/01/02 14:14:45;;;;;;;1.98;1.02;;;;;;;;;;5007627;28;20946;-58
2024/01/02 14:17:13;;;;;;;1.10;0.50;;;;;;;;;;5005815;28;20050;-59
2024/01/02 14:19:45;;;;;;;1.85;1.10;;;;;;;;;;5001974;28;20050;-59
2024/01/02 14:22:23;;;;;;;3.45;1.75;;;;;;;;;;5005462;28;20046;-59
2024/01/02 14:25:31;;;;;;;2.60;1.33;;;;;;;;;;5001942;28;20057;-59
2024/01/02 14:28:15;;;;;;;0.55;0.50;;;;;;;;;;4985197;28;20053;-59
2024/01/02 14:30:42;;;;;;;0.82;0.60;;;;;;;;;;4997572;28;20035;-59
2024/01/02 14:33:16;;;;;;;4.93;2.53;;;;;;;;;;5005936;28;20061;-59
2024/01/02 14:36:17;;;;;;;1.85;1.13;;;;;;;;;;5006600;28;20107;-58
2024/01/02 14:38:46;;;;;;;1.05;0.70;;;;;;;;;;4997363;28;20057;-59
2024/01/02 14:41:30;;;;;;;2.70;1.80;;;;;;;;;;4998481;28;20042;-58
2024/01/02 14:44:06;;;;;;;1.10;0.82;;;;;;;;;;5000822;28;20289;-59
2024/01/02 14:46:34;;;;;;;0.60;0.43;;;;;;;;;;5003640;28;20045;-59
2024/01/02 14:49:03;;;;;;;0.30;0.30;;;;;;;;;;4997523;28;20053;-59
2024/01/02 14:51:54;;;;;;;1.10;0.80;;;;;;;;;;5002333;28;20300;-59
2024/01/02 14:54:48;;;;;;;1.20;0.50;;;;;;;;;;5001292;28;20034;-59
2024/01/02 14:57:19;;;;;;;0.82;0.50;;;;;;;;;;5008540;28;20034;-59